createdAt,value
2023-04-09T00:00:29.198Z,2.54
2023-04-09T00:03:14.542Z,2.57
2023-04-09T00:06:00.085Z,2.62
2023-04-09T00:08:45.677Z,2.69
2023-04-09T00:11:31.255Z,2.73
2023-04-09T00:14:16.526Z,2.71
2023-04-09T00:17:01.686Z,2.69
2023-04-09T00:19:47.015Z,2.68
2023-04-09T00:22:32.305Z,2.67
2023-04-09T00:25:17.702Z,2.70
2023-04-09T00:28:03.473Z,2.75
2023-04-09T00:30:48.410Z,2.74
2023-04-09T00:33:33.789Z,2.76
2023-04-09T00:36:19.120Z,2.76
2023-04-09T00:39:04.532Z,2.73
2023-04-09T00:41:49.746Z,2.71
2023-04-09T00:44:34.980Z,2.65
2023-04-09T00:47:20.437Z,2.61
2023-04-09T00:50:06.466Z,2.62
2023-04-09T00:52:52.113Z,2.66
2023-04-09T00:55:39.968Z,2.69
2023-04-09T00:58:25.018Z,2.64
2023-04-09T01:01:10.403Z,2.61
2023-04-09T01:03:56.485Z,2.58
2023-04-09T01:06:41.432Z,2.56
2023-04-09T01:09:42.543Z,2.51
2023-04-09T01:12:37.034Z,2.47
2023-04-09T01:15:33.822Z,2.44
2023-04-09T01:18:36.127Z,2.43
2023-04-09T01:21:26.308Z,2.41
2023-04-09T01:24:31.326Z,2.43
2023-04-09T01:27:17.606Z,2.46
2023-04-09T01:30:05.172Z,2.50
2023-04-09T01:32:52.456Z,2.35
2023-04-09T01:35:38.611Z,2.25
2023-04-09T01:38:25.659Z,2.14
2023-04-09T01:41:16.619Z,2.15
2023-04-09T01:44:03.471Z,2.14
2023-04-09T01:46:50.124Z,2.10
2023-04-09T01:49:36.114Z,2.17
2023-04-09T01:52:21.862Z,2.27
2023-04-09T01:55:07.830Z,2.35
2023-04-09T01:57:53.324Z,2.38
2023-04-09T02:00:41.486Z,2.41
2023-04-09T02:03:33.893Z,2.44
2023-04-09T02:06:56.667Z,2.49
2023-04-09T02:09:45.092Z,2.54
2023-04-09T02:12:33.387Z,2.58
2023-04-09T02:15:21.683Z,2.59
2023-04-09T02:18:28.607Z,2.57
2023-04-09T02:21:13.912Z,2.40
2023-04-09T02:23:59.714Z,2.34
2023-04-09T02:26:44.846Z,2.36
2023-04-09T02:29:33.492Z,2.35
2023-04-09T02:32:18.913Z,2.40
2023-04-09T02:35:04.406Z,2.43
2023-04-09T02:37:49.392Z,2.46
2023-04-09T02:40:34.667Z,2.52
2023-04-09T02:43:19.794Z,2.56
2023-04-09T02:46:05.419Z,2.55
2023-04-09T02:48:50.945Z,2.56
2023-04-09T02:51:36.882Z,2.49
2023-04-09T02:54:22.162Z,2.51
2023-04-09T02:57:07.494Z,2.57
2023-04-09T02:59:52.840Z,2.58
2023-04-09T03:02:38.265Z,2.63
2023-04-09T03:05:23.591Z,2.64
2023-04-09T03:08:08.858Z,2.56
2023-04-09T03:10:54.160Z,2.52
2023-04-09T03:13:39.500Z,2.34
2023-04-09T03:16:25.708Z,2.20
2023-04-09T03:19:11.289Z,2.19
2023-04-09T03:21:56.622Z,2.29
2023-04-09T03:24:42.027Z,2.37
2023-04-09T03:27:27.324Z,2.39
2023-04-09T03:30:12.893Z,2.43
2023-04-09T03:32:59.535Z,2.46
2023-04-09T03:35:44.843Z,2.49
2023-04-09T03:38:29.976Z,2.54
2023-04-09T03:41:15.574Z,2.53
2023-04-09T03:44:00.744Z,2.53
2023-04-09T03:46:46.428Z,2.56
2023-04-09T03:49:31.995Z,2.55
2023-04-09T03:52:17.204Z,2.54
2023-04-09T03:55:03.631Z,2.52
2023-04-09T03:57:49.138Z,2.53
2023-04-09T04:00:34.589Z,2.54
2023-04-09T04:03:20.064Z,2.44
2023-04-09T04:06:05.383Z,2.34
2023-04-09T04:08:50.981Z,2.35
2023-04-09T04:11:36.417Z,2.37
2023-04-09T04:14:21.854Z,2.32
2023-04-09T04:17:07.070Z,2.23
2023-04-09T04:19:52.424Z,2.24
2023-04-09T04:22:37.651Z,2.31
2023-04-09T04:25:22.790Z,2.40
2023-04-09T04:28:08.899Z,2.42
2023-04-09T04:30:53.807Z,2.44
2023-04-09T04:33:40.719Z,2.44
2023-04-09T04:36:26.205Z,2.44
2023-04-09T04:39:11.340Z,2.44
2023-04-09T04:41:56.964Z,2.42
2023-04-09T04:44:41.866Z,2.23
2023-04-09T04:47:27.412Z,2.14
2023-04-09T04:50:12.418Z,2.06
2023-04-09T04:52:57.736Z,1.97
2023-04-09T04:55:43.104Z,1.92
2023-04-09T04:58:28.310Z,1.90
2023-04-09T05:01:13.807Z,1.96
2023-04-09T05:03:58.952Z,2.01
2023-04-09T05:06:44.209Z,2.13
2023-04-09T05:09:29.495Z,2.21
2023-04-09T05:12:15.502Z,2.28
2023-04-09T05:15:00.552Z,2.33
2023-04-09T05:17:45.809Z,2.34
2023-04-09T05:20:31.205Z,2.33
2023-04-09T05:23:16.508Z,2.28
2023-04-09T05:26:01.937Z,2.19
2023-04-09T05:28:47.546Z,2.23
2023-04-09T05:31:32.633Z,2.29
2023-04-09T05:34:17.923Z,2.34
2023-04-09T05:37:03.174Z,2.18
2023-04-09T05:39:48.500Z,2.13
2023-04-09T05:42:33.989Z,2.24
2023-04-09T05:45:18.952Z,2.32
2023-04-09T05:48:04.509Z,2.37
2023-04-09T05:50:55.460Z,2.35
2023-04-09T05:53:40.612Z,2.41
2023-04-09T05:56:27.178Z,2.41
2023-04-09T05:59:14.653Z,2.36
2023-04-09T06:02:00.137Z,2.37
2023-04-09T06:04:45.609Z,2.34
2023-04-09T06:07:30.853Z,2.33
2023-04-09T06:10:16.298Z,2.21
2023-04-09T06:13:01.525Z,2.22
2023-04-09T06:15:46.926Z,2.24
2023-04-09T06:18:32.741Z,2.15
2023-04-09T06:21:17.965Z,2.14
2023-04-09T06:24:03.544Z,2.07
2023-04-09T06:26:49.099Z,2.00
2023-04-09T06:29:34.302Z,1.96
2023-04-09T06:32:19.668Z,1.97
2023-04-09T06:35:05.707Z,1.96
2023-04-09T06:37:50.936Z,1.97
2023-04-09T06:40:39.677Z,1.92
2023-04-09T06:43:24.919Z,1.93
2023-04-09T06:46:10.061Z,2.09
2023-04-09T06:48:55.558Z,2.08
2023-04-09T06:51:41.022Z,2.09
2023-04-09T06:54:26.190Z,2.16
2023-04-09T06:57:11.349Z,2.21
2023-04-09T06:59:56.553Z,2.19
2023-04-09T07:02:42.066Z,2.23
2023-04-09T07:05:27.394Z,2.27
2023-04-09T07:08:12.930Z,2.33
2023-04-09T07:10:58.214Z,2.41
2023-04-09T07:13:43.569Z,2.46
2023-04-09T07:16:28.818Z,2.50
2023-04-09T07:19:14.148Z,2.56
2023-04-09T07:21:59.273Z,2.59
2023-04-09T07:24:44.794Z,2.67
2023-04-09T07:27:30.096Z,2.78
2023-04-09T07:30:15.739Z,2.86
2023-04-09T07:33:01.026Z,2.83
2023-04-09T07:35:47.039Z,2.86
2023-04-09T07:38:32.428Z,2.89
2023-04-09T07:41:17.573Z,2.96
2023-04-09T07:44:03.821Z,3.05
2023-04-09T07:46:49.188Z,3.16
2023-04-09T07:49:37.120Z,3.22
2023-04-09T07:52:22.556Z,3.31
2023-04-09T07:55:07.956Z,3.44
2023-04-09T07:57:53.401Z,3.53
2023-04-09T08:00:38.849Z,3.62
2023-04-09T08:03:24.230Z,3.73
2023-04-09T08:06:09.537Z,3.89
2023-04-09T08:08:54.924Z,4.01
2023-04-09T08:11:40.502Z,4.16
2023-04-09T08:14:25.741Z,4.29
2023-04-09T08:17:11.094Z,4.43
2023-04-09T08:19:56.396Z,4.55
2023-04-09T08:22:42.275Z,4.67
2023-04-09T08:25:27.596Z,4.80
2023-04-09T08:28:13.198Z,4.94
2023-04-09T08:30:58.422Z,5.08
2023-04-09T08:33:43.542Z,5.16
2023-04-09T08:36:29.014Z,5.27
2023-04-09T08:39:16.487Z,5.39
2023-04-09T08:42:02.309Z,5.58
2023-04-09T08:44:47.919Z,5.75
2023-04-09T08:47:34.521Z,5.87
2023-04-09T08:50:20.642Z,5.96
2023-04-09T08:53:08.238Z,6.09
2023-04-09T08:55:53.652Z,6.17
2023-04-09T08:58:42.577Z,6.21
2023-04-09T09:01:32.481Z,6.28
2023-04-09T09:04:18.007Z,6.42
2023-04-09T09:07:07.203Z,6.56
2023-04-09T09:09:59.233Z,6.68
2023-04-09T09:12:44.473Z,6.81
2023-04-09T09:15:30.920Z,6.86
2023-04-09T09:18:18.041Z,6.88
2023-04-09T09:21:17.768Z,6.88
2023-04-09T09:24:17.164Z,6.97
2023-04-09T09:27:03.079Z,7.12
2023-04-09T09:29:48.406Z,7.22
2023-04-09T09:32:34.531Z,7.31
2023-04-09T09:35:20.471Z,7.45
2023-04-09T09:38:05.515Z,7.56
2023-04-09T09:40:50.634Z,7.62
2023-04-09T09:43:45.401Z,7.73
2023-04-09T09:46:35.493Z,7.81
2023-04-09T09:49:21.218Z,7.85
2023-04-09T09:52:09.876Z,7.91
2023-04-09T09:54:55.826Z,8.00
2023-04-09T09:57:44.382Z,8.09
2023-04-09T10:00:32.336Z,8.16
2023-04-09T10:03:24.964Z,8.23
2023-04-09T10:06:12.103Z,8.24
2023-04-09T10:08:58.330Z,8.33
2023-04-09T10:11:47.951Z,8.37
2023-04-09T10:14:35.897Z,8.29
2023-04-09T10:17:22.181Z,8.21
2023-04-09T10:20:41.862Z,8.23
2023-04-09T10:23:49.479Z,8.32
2023-04-09T10:26:36.471Z,8.46
2023-04-09T10:29:28.698Z,8.47
2023-04-09T10:32:21.225Z,8.53
2023-04-09T10:35:09.617Z,8.50
2023-04-09T10:37:54.779Z,8.59
2023-04-09T10:40:49.588Z,8.60
2023-04-09T10:43:36.702Z,8.68
2023-04-09T10:46:34.910Z,8.69
2023-04-09T10:49:24.381Z,8.67
2023-04-09T10:52:12.606Z,8.74
2023-04-09T10:54:57.726Z,8.73
2023-04-09T10:57:43.227Z,8.75
2023-04-09T11:00:28.296Z,8.81
2023-04-09T11:03:30.618Z,8.92
2023-04-09T11:06:20.733Z,8.97
2023-04-09T11:09:05.894Z,8.94
2023-04-09T11:11:54.340Z,8.86
2023-04-09T11:14:39.671Z,8.85
2023-04-09T11:17:25.564Z,8.88
2023-04-09T11:20:11.526Z,8.90
2023-04-09T11:22:57.292Z,8.86
2023-04-09T11:25:42.706Z,8.83
2023-04-09T11:28:28.010Z,8.90
2023-04-09T11:31:13.321Z,8.96
2023-04-09T11:33:58.602Z,8.95
2023-04-09T11:36:43.698Z,8.99
2023-04-09T11:39:29.208Z,9.05
2023-04-09T11:42:17.623Z,9.05
2023-04-09T11:45:04.329Z,9.09
2023-04-09T11:47:49.841Z,9.10
2023-04-09T11:50:37.475Z,9.08
2023-04-09T11:53:24.532Z,9.04
2023-04-09T11:56:10.404Z,8.99
2023-04-09T11:58:55.917Z,9.00
2023-04-09T12:01:41.770Z,9.03
2023-04-09T12:04:27.181Z,9.08
2023-04-09T12:07:12.577Z,9.16
2023-04-09T12:10:04.618Z,9.24
2023-04-09T12:12:50.255Z,9.26
2023-04-09T12:15:38.396Z,9.31
2023-04-09T12:18:23.604Z,9.32
2023-04-09T12:21:08.738Z,9.33
2023-04-09T12:23:54.066Z,9.35
2023-04-09T12:26:39.367Z,9.40
2023-04-09T12:29:26.192Z,9.44
2023-04-09T12:32:11.557Z,9.40
2023-04-09T12:34:57.085Z,9.38
2023-04-09T12:37:43.793Z,9.43
2023-04-09T12:40:29.137Z,9.49
2023-04-09T12:43:14.404Z,9.51
2023-04-09T12:45:59.920Z,9.54
2023-04-09T12:48:46.400Z,9.55
2023-04-09T12:51:31.690Z,9.56
2023-04-09T12:54:17.541Z,9.53
2023-04-09T12:57:02.970Z,9.46
2023-04-09T12:59:48.254Z,9.41
2023-04-09T13:02:34.580Z,9.45
2023-04-09T13:05:19.884Z,9.44
2023-04-09T13:08:05.222Z,9.48
2023-04-09T13:10:50.717Z,9.49
2023-04-09T13:13:35.926Z,9.50
2023-04-09T13:16:21.262Z,9.55
2023-04-09T13:19:07.747Z,9.52
2023-04-09T13:21:52.831Z,9.42
2023-04-09T13:24:39.012Z,9.42
2023-04-09T13:27:24.263Z,9.43
2023-04-09T13:30:09.755Z,9.47
2023-04-09T13:32:55.141Z,9.46
2023-04-09T13:35:41.000Z,9.44
2023-04-09T13:38:26.714Z,9.48
2023-04-09T13:41:11.827Z,9.44
2023-04-09T13:43:57.149Z,9.44
2023-04-09T13:46:43.684Z,9.43
2023-04-09T13:49:30.323Z,9.44
2023-04-09T13:52:15.823Z,9.39
2023-04-09T13:55:01.229Z,9.41
2023-04-09T13:57:46.579Z,9.40
2023-04-09T14:00:32.542Z,9.34
2023-04-09T14:03:17.596Z,9.26
2023-04-09T14:06:03.191Z,9.23
2023-04-09T14:08:48.509Z,9.27
2023-04-09T14:11:33.486Z,9.24
2023-04-09T14:14:19.939Z,9.26
2023-04-09T14:17:04.980Z,9.24
2023-04-09T14:19:50.364Z,9.21
2023-04-09T14:22:38.122Z,9.22
2023-04-09T14:25:23.362Z,9.20
2023-04-09T14:28:08.856Z,9.22
2023-04-09T14:30:54.382Z,9.27
2023-04-09T14:33:41.535Z,9.26
2023-04-09T14:36:27.379Z,9.30
2023-04-09T14:39:12.317Z,9.28
2023-04-09T14:41:57.757Z,9.26
2023-04-09T14:44:43.021Z,9.21
2023-04-09T14:47:28.365Z,9.20
2023-04-09T14:50:13.716Z,9.18
2023-04-09T14:52:58.873Z,9.13
2023-04-09T14:55:44.378Z,9.17
2023-04-09T14:58:29.475Z,9.16
2023-04-09T15:01:14.936Z,9.15
2023-04-09T15:04:00.637Z,9.19
2023-04-09T15:06:46.257Z,9.18
2023-04-09T15:09:31.736Z,9.18
2023-04-09T15:12:16.969Z,9.19
2023-04-09T15:15:06.071Z,9.22
2023-04-09T15:17:51.521Z,9.20
2023-04-09T15:20:40.498Z,9.19
2023-04-09T15:23:26.049Z,9.14
2023-04-09T15:26:11.264Z,9.15
2023-04-09T15:29:07.214Z,9.15
2023-04-09T15:31:53.347Z,9.15
2023-04-09T15:34:38.570Z,9.19
2023-04-09T15:37:24.054Z,9.26
2023-04-09T15:40:09.601Z,9.27
2023-04-09T15:42:55.348Z,9.16
2023-04-09T15:45:41.109Z,9.12
2023-04-09T15:48:26.621Z,9.18
2023-04-09T15:51:12.096Z,9.19
2023-04-09T15:53:57.358Z,9.02
2023-04-09T15:56:42.861Z,8.80
2023-04-09T15:59:28.100Z,8.66
2023-04-09T16:02:13.201Z,8.66
2023-04-09T16:04:58.356Z,8.73
2023-04-09T16:07:43.684Z,8.82
2023-04-09T16:10:28.735Z,8.85
2023-04-09T16:13:13.735Z,8.91
2023-04-09T16:15:59.864Z,8.92
2023-04-09T16:18:44.833Z,8.91
2023-04-09T16:21:29.841Z,8.84
2023-04-09T16:24:15.601Z,8.78
2023-04-09T16:27:01.531Z,8.71
2023-04-09T16:29:46.986Z,8.66
2023-04-09T16:32:32.174Z,8.64
2023-04-09T16:35:17.261Z,8.63
2023-04-09T16:38:02.620Z,8.62
2023-04-09T16:40:47.807Z,8.55
2023-04-09T16:43:32.919Z,8.54
2023-04-09T16:46:18.242Z,8.47
2023-04-09T16:49:03.779Z,8.41
2023-04-09T16:51:51.754Z,8.39
2023-04-09T16:54:37.026Z,8.33
2023-04-09T16:57:22.678Z,8.26
2023-04-09T17:00:08.895Z,8.24
2023-04-09T17:02:55.694Z,8.19
2023-04-09T17:05:41.451Z,8.16
2023-04-09T17:08:26.613Z,8.09
2023-04-09T17:11:18.025Z,8.04
2023-04-09T17:14:03.292Z,7.97
2023-04-09T17:16:48.696Z,7.92
2023-04-09T17:19:34.089Z,7.89
2023-04-09T17:22:19.398Z,7.86
2023-04-09T17:25:04.858Z,7.78
2023-04-09T17:27:50.254Z,7.72
2023-04-09T17:30:35.491Z,7.67
2023-04-09T17:33:20.864Z,7.61
2023-04-09T17:36:06.203Z,7.54
2023-04-09T17:38:56.644Z,7.50
2023-04-09T17:41:45.837Z,7.43
2023-04-09T17:44:35.079Z,7.35
2023-04-09T17:47:20.693Z,7.28
2023-04-09T17:50:07.562Z,7.19
2023-04-09T17:52:52.874Z,7.16
2023-04-09T17:55:38.180Z,7.07
2023-04-09T17:58:24.909Z,7.00
2023-04-09T18:01:12.617Z,6.95
2023-04-09T18:03:58.010Z,6.88
2023-04-09T18:06:43.591Z,6.81
2023-04-09T18:09:28.626Z,6.74
2023-04-09T18:12:13.793Z,6.68
2023-04-09T18:14:58.896Z,6.60
2023-04-09T18:17:44.526Z,6.52
2023-04-09T18:20:29.752Z,6.43
2023-04-09T18:23:15.376Z,6.39
2023-04-09T18:26:00.526Z,6.36
2023-04-09T18:28:45.780Z,6.30
2023-04-09T18:31:31.165Z,6.25
2023-04-09T18:34:16.835Z,6.21
2023-04-09T18:37:02.214Z,6.14
2023-04-09T18:39:47.508Z,6.09
2023-04-09T18:42:32.531Z,6.04
2023-04-09T18:45:17.580Z,5.99
2023-04-09T18:48:03.342Z,5.96
2023-04-09T18:50:48.974Z,5.89
2023-04-09T18:53:33.856Z,5.83
2023-04-09T18:56:20.096Z,5.75
2023-04-09T18:59:05.709Z,5.73
2023-04-09T19:01:51.061Z,5.73
2023-04-09T19:04:40.021Z,5.73
2023-04-09T19:07:25.889Z,5.71
2023-04-09T19:10:10.965Z,5.65
2023-04-09T19:12:55.958Z,5.58
2023-04-09T19:15:41.203Z,5.55
2023-04-09T19:18:26.731Z,5.51
2023-04-09T19:21:12.118Z,5.44
2023-04-09T19:23:57.311Z,5.39
2023-04-09T19:26:42.567Z,5.34
2023-04-09T19:29:27.935Z,5.27
2023-04-09T19:32:13.397Z,5.21
2023-04-09T19:34:58.618Z,5.15
2023-04-09T19:37:44.939Z,5.11
2023-04-09T19:40:30.452Z,5.06
2023-04-09T19:43:15.670Z,5.07
2023-04-09T19:46:06.561Z,5.05
2023-04-09T19:48:52.392Z,5.06
2023-04-09T19:51:37.828Z,5.07
2023-04-09T19:54:23.283Z,5.06
2023-04-09T19:57:08.635Z,5.06
2023-04-09T19:59:54.147Z,5.05
2023-04-09T20:02:41.555Z,5.07
2023-04-09T20:05:27.224Z,5.09
2023-04-09T20:08:15.749Z,5.11
2023-04-09T20:11:01.670Z,5.12
2023-04-09T20:13:48.175Z,5.11
2023-04-09T20:16:33.814Z,5.08
2023-04-09T20:19:19.860Z,5.06
2023-04-09T20:22:05.488Z,5.04
2023-04-09T20:24:50.847Z,5.03
2023-04-09T20:27:35.922Z,5.03
2023-04-09T20:30:21.631Z,5.02
2023-04-09T20:33:06.945Z,5.03
2023-04-09T20:35:53.197Z,5.02
2023-04-09T20:38:38.440Z,5.03
2023-04-09T20:41:23.658Z,5.01
2023-04-09T20:44:09.185Z,4.97
2023-04-09T20:46:54.486Z,4.97
2023-04-09T20:49:39.952Z,5.01
2023-04-09T20:52:28.076Z,5.00
2023-04-09T20:55:13.548Z,4.97
2023-04-09T20:58:00.175Z,4.94
2023-04-09T21:00:45.724Z,4.91
2023-04-09T21:03:31.379Z,4.91
2023-04-09T21:06:19.591Z,4.90
2023-04-09T21:09:04.631Z,4.90
2023-04-09T21:11:50.025Z,4.89
2023-04-09T21:14:35.547Z,4.85
2023-04-09T21:17:21.034Z,4.86
2023-04-09T21:20:06.855Z,4.85
2023-04-09T21:22:52.952Z,4.85
2023-04-09T21:25:38.015Z,4.86
2023-04-09T21:28:24.246Z,4.86
2023-04-09T21:31:11.250Z,4.88
2023-04-09T21:33:57.062Z,4.82
2023-04-09T21:36:42.325Z,4.78
2023-04-09T21:39:28.592Z,4.64
2023-04-09T21:42:13.860Z,4.63
2023-04-09T21:44:59.021Z,4.67
2023-04-09T21:47:44.675Z,4.70
2023-04-09T21:50:32.206Z,4.72
2023-04-09T21:53:17.482Z,4.75
2023-04-09T21:56:04.966Z,4.74
2023-04-09T21:58:50.701Z,4.73
2023-04-09T22:01:36.399Z,4.73
2023-04-09T22:04:21.669Z,4.76
2023-04-09T22:07:06.944Z,4.78
2023-04-09T22:09:57.752Z,4.79
2023-04-09T22:12:42.753Z,4.76
2023-04-09T22:15:28.058Z,4.73
2023-04-09T22:18:13.418Z,4.74
2023-04-09T22:20:58.751Z,4.74
2023-04-09T22:23:44.453Z,4.78
2023-04-09T22:26:29.494Z,4.74
2023-04-09T22:29:14.728Z,4.73
2023-04-09T22:32:00.115Z,4.71
2023-04-09T22:34:45.299Z,4.69
2023-04-09T22:37:30.842Z,4.66
2023-04-09T22:40:16.716Z,4.67
2023-04-09T22:43:01.649Z,4.65
2023-04-09T22:45:54.643Z,4.65
2023-04-09T22:48:44.455Z,4.64
2023-04-09T22:51:31.701Z,4.62
2023-04-09T22:54:16.698Z,4.59
2023-04-09T22:57:02.324Z,4.56
2023-04-09T22:59:47.555Z,4.51
2023-04-09T23:02:32.927Z,4.48
2023-04-09T23:05:18.139Z,4.43
2023-04-09T23:08:03.549Z,4.40
2023-04-09T23:10:49.143Z,4.34
2023-04-09T23:13:33.989Z,4.29
2023-04-09T23:16:19.343Z,4.22
2023-04-09T23:19:04.776Z,4.21
2023-04-09T23:21:50.069Z,4.16
2023-04-09T23:24:36.410Z,4.12
2023-04-09T23:27:28.192Z,4.03
2023-04-09T23:30:17.315Z,4.00
2023-04-09T23:33:02.460Z,3.97
2023-04-09T23:35:48.103Z,3.95
2023-04-09T23:38:33.629Z,3.91
2023-04-09T23:41:18.963Z,3.93
2023-04-09T23:44:04.472Z,3.86
2023-04-09T23:46:49.633Z,3.85
2023-04-09T23:49:34.794Z,3.80
2023-04-09T23:52:20.173Z,3.79
2023-04-09T23:55:08.948Z,3.73
2023-04-09T23:57:54.479Z,3.72
